createdAt,value
2019-03-28T00:01:43.265Z,8.18
2019-03-28T00:04:48.815Z,8.19
2019-03-28T00:07:57.156Z,8.22
2019-03-28T00:11:02.879Z,8.24
2019-03-28T00:14:08.737Z,8.25
2019-03-28T00:17:50.176Z,8.25
2019-03-28T00:20:57.679Z,8.22
2019-03-28T00:24:25.102Z,8.21
2019-03-28T00:27:33.609Z,8.24
2019-03-28T00:30:44.462Z,8.22
2019-03-28T00:33:58.431Z,8.26
2019-03-28T00:37:09.134Z,8.23
2019-03-28T00:40:14.853Z,8.24
2019-03-28T00:43:20.094Z,8.21
2019-03-28T00:46:32.819Z,8.18
2019-03-28T00:49:38.333Z,8.21
2019-03-28T00:52:55.585Z,8.21
2019-03-28T00:56:03.491Z,8.23
2019-03-28T00:59:10.539Z,8.16
2019-03-28T01:02:19.377Z,8.12
2019-03-28T01:05:34.161Z,8.18
2019-03-28T01:09:15.431Z,8.12
2019-03-28T01:12:29.381Z,8.17
2019-03-28T01:15:49.997Z,8.15
2019-03-28T01:19:17.079Z,8.14
2019-03-28T01:22:26.342Z,8.11
2019-03-28T01:25:32.358Z,8.08
2019-03-28T01:28:41.190Z,8.09
2019-03-28T01:32:06.905Z,8.07
2019-03-28T01:35:39.582Z,8.10
2019-03-28T01:38:45.250Z,8.10
2019-03-28T01:45:23.599Z,8.14
2019-03-28T01:48:38.277Z,8.17
2019-03-28T01:51:54.109Z,8.16
2019-03-28T01:55:02.459Z,8.18
2019-03-28T01:58:28.498Z,8.21
2019-03-28T02:01:36.496Z,8.23
2019-03-28T02:04:42.459Z,8.17
2019-03-28T02:07:53.737Z,8.17
2019-03-28T02:11:02.198Z,8.18
2019-03-28T02:14:07.884Z,8.16
2019-03-28T02:17:21.362Z,8.19
2019-03-28T02:23:47.806Z,8.19
2019-03-28T02:26:59.501Z,8.19
2019-03-28T02:30:05.737Z,8.21
2019-03-28T02:33:26.319Z,8.18
2019-03-28T02:36:57.179Z,8.16
2019-03-28T02:40:05.861Z,8.15
2019-03-28T02:43:15.936Z,8.19
2019-03-28T02:46:27.486Z,8.18
2019-03-28T03:05:45.927Z,8.16
2019-03-28T03:09:11.143Z,8.15
2019-03-28T03:12:19.451Z,8.18
2019-03-28T03:15:34.710Z,8.14
2019-03-28T03:18:45.461Z,8.16
2019-03-28T03:26:03.794Z,8.12
2019-03-28T03:29:11.901Z,8.07
2019-03-28T03:32:21.391Z,8.05
2019-03-28T03:39:36.338Z,8.11
2019-03-28T03:42:48.239Z,8.10
2019-03-28T03:45:55.434Z,8.13
2019-03-28T03:49:02.968Z,8.10
2019-03-28T03:52:08.582Z,8.07
2019-03-28T03:55:32.403Z,8.07
2019-03-28T03:58:47.138Z,8.09
2019-03-28T04:02:05.872Z,8.07
2019-03-28T04:05:14.497Z,8.06
2019-03-28T04:08:24.322Z,8.08
2019-03-28T04:11:33.175Z,8.11
2019-03-28T04:14:49.505Z,8.11
2019-03-28T04:18:03.640Z,8.11
2019-03-28T04:21:14.397Z,8.06
2019-03-28T04:24:22.718Z,8.08
2019-03-28T04:28:07.155Z,8.08
2019-03-28T04:31:15.903Z,8.17
2019-03-28T04:34:21.599Z,8.14
2019-03-28T04:37:27.211Z,8.18
2019-03-28T04:40:41.493Z,8.17
2019-03-28T04:43:46.909Z,8.14
2019-03-28T04:46:52.842Z,8.18
2019-03-28T04:50:00.580Z,8.19
2019-03-28T04:53:06.118Z,8.19
2019-03-28T04:56:14.621Z,8.18
2019-03-28T04:59:22.196Z,8.21
2019-03-28T05:02:31.346Z,8.23
2019-03-28T05:05:37.559Z,8.27
2019-03-28T05:08:45.335Z,8.33
2019-03-28T05:12:29.798Z,8.31
2019-03-28T05:15:52.658Z,8.34
2019-03-28T05:19:03.428Z,8.30
2019-03-28T05:22:11.336Z,8.32
2019-03-28T05:25:19.849Z,8.37
2019-03-28T05:28:29.454Z,8.34
2019-03-28T05:31:37.045Z,8.32
2019-03-28T05:34:45.570Z,8.30
2019-03-28T05:37:51.262Z,8.37
2019-03-28T05:41:07.068Z,8.33
2019-03-28T05:44:15.252Z,8.29
2019-03-28T05:47:22.290Z,8.36
2019-03-28T05:50:39.960Z,8.38
2019-03-28T05:54:03.573Z,8.42
2019-03-28T05:57:11.205Z,8.45
2019-03-28T06:00:16.862Z,8.55
2019-03-28T06:03:22.362Z,8.53
2019-03-28T06:06:28.115Z,8.58
2019-03-28T06:09:33.939Z,8.57
2019-03-28T06:12:39.627Z,8.60
2019-03-28T06:15:46.384Z,8.56
2019-03-28T06:26:29.679Z,8.72
2019-03-28T06:29:35.124Z,8.71
2019-03-28T06:33:04.510Z,8.75
2019-03-28T06:36:09.989Z,8.75
2019-03-28T06:40:18.407Z,8.86
2019-03-28T06:43:26.285Z,8.89
2019-03-28T06:46:31.662Z,8.88
2019-03-28T06:49:37.071Z,8.85
2019-03-28T06:52:53.222Z,8.79
2019-03-28T06:55:58.761Z,8.77
2019-03-28T06:59:04.184Z,8.85
2019-03-28T07:02:10.441Z,9.00
2019-03-28T07:05:16.254Z,9.03
2019-03-28T07:08:21.673Z,9.02
2019-03-28T07:11:46.473Z,9.07
2019-03-28T07:14:51.866Z,9.08
2019-03-28T07:17:57.561Z,9.26
2019-03-28T07:21:05.549Z,9.33
2019-03-28T07:24:19.887Z,9.33
2019-03-28T07:27:25.331Z,9.44
2019-03-28T07:30:30.855Z,9.45
2019-03-28T07:40:49.538Z,9.59
2019-03-28T07:43:56.287Z,9.49
2019-03-28T07:59:19.606Z,9.58
2019-03-28T08:02:36.798Z,9.74
2019-03-28T08:05:51.908Z,9.89
2019-03-28T08:13:47.683Z,9.93
2019-03-28T08:16:54.403Z,9.99
2019-03-28T08:24:44.114Z,10.16
2019-03-28T08:27:49.549Z,9.94
2019-03-28T08:30:54.890Z,9.78
2019-03-28T08:34:02.986Z,9.88
2019-03-28T08:37:24.943Z,9.94
2019-03-28T08:40:39.495Z,9.95
2019-03-28T08:43:43.385Z,10.05
2019-03-28T08:47:00.940Z,10.11
2019-03-28T08:50:13.227Z,10.03
2019-03-28T08:53:18.493Z,10.01
2019-03-28T08:56:24.041Z,9.89
2019-03-28T08:59:29.385Z,9.88
2019-03-28T09:02:35.047Z,9.81
2019-03-28T09:05:42.942Z,9.85
2019-03-28T09:09:09.940Z,9.91
2019-03-28T09:12:41.768Z,10.02
2019-03-28T09:15:53.050Z,9.96
2019-03-28T09:19:15.951Z,9.99
2019-03-28T09:22:22.711Z,9.95
2019-03-28T09:29:13.496Z,10.16
2019-03-28T09:32:58.593Z,10.19
2019-03-28T09:36:07.525Z,10.17
2019-03-28T09:39:15.981Z,10.24
2019-03-28T09:42:31.319Z,10.26
2019-03-28T09:45:41.622Z,10.34
2019-03-28T09:56:16.765Z,10.58
2019-03-28T10:02:44.283Z,10.75
2019-03-28T10:06:40.621Z,10.87
2019-03-28T10:09:55.878Z,10.93
2019-03-28T10:13:36.488Z,11.11
2019-03-28T10:16:42.085Z,10.94
2019-03-28T10:19:53.011Z,11.00
2019-03-28T10:23:05.812Z,10.98
2019-03-28T10:26:11.360Z,11.18
2019-03-28T10:29:17.937Z,11.25
2019-03-28T10:35:48.054Z,11.20
2019-03-28T10:38:59.406Z,11.13
2019-03-28T10:42:07.165Z,11.17
2019-03-28T10:45:14.864Z,11.06
2019-03-28T10:48:38.862Z,11.09
2019-03-28T10:51:50.513Z,11.21
2019-03-28T11:11:40.404Z,11.58
2019-03-28T11:14:46.390Z,11.35
2019-03-28T11:18:26.379Z,11.25
2019-03-28T11:29:59.551Z,11.67
2019-03-28T11:33:27.919Z,11.76
2019-03-28T11:36:37.869Z,11.69
2019-03-28T11:39:51.108Z,11.70
2019-03-28T11:44:11.599Z,11.58
2019-03-28T11:55:13.937Z,12.35
2019-03-28T12:02:42.556Z,12.76
2019-03-28T12:06:50.652Z,12.94
2019-03-28T12:22:40.787Z,13.00
2019-03-28T12:25:58.071Z,12.90
2019-03-28T12:29:06.595Z,12.77
2019-03-28T12:32:31.633Z,12.84
2019-03-28T12:35:37.530Z,12.96
2019-03-28T12:42:11.160Z,12.89
2019-03-28T12:45:17.275Z,12.74
2019-03-28T12:51:31.262Z,12.90
2019-03-28T12:54:36.466Z,13.14
2019-03-28T12:57:41.833Z,13.29
2019-03-28T13:00:50.998Z,13.43
2019-03-28T13:03:56.157Z,13.61
2019-03-28T13:07:01.491Z,13.48
2019-03-28T13:10:07.979Z,13.44
2019-03-28T13:13:13.411Z,13.24
2019-03-28T13:16:19.004Z,13.22
2019-03-28T13:19:37.528Z,13.42
2019-03-28T13:22:43.232Z,13.59
2019-03-28T13:25:48.445Z,13.68
2019-03-28T13:28:54.091Z,13.88
2019-03-28T13:31:59.810Z,13.74
2019-03-28T13:42:05.876Z,13.19
2019-03-28T13:48:30.465Z,13.38
2019-03-28T13:51:35.707Z,13.53
2019-03-28T13:54:40.894Z,13.43
2019-03-28T13:57:47.864Z,13.38
2019-03-28T14:00:56.640Z,13.50
2019-03-28T14:04:04.671Z,13.70
2019-03-28T14:07:10.009Z,13.78
2019-03-28T14:10:21.850Z,13.91
2019-03-28T14:13:32.677Z,13.95
2019-03-28T14:16:40.692Z,14.03
2019-03-28T14:19:46.016Z,13.95
2019-03-28T14:22:57.557Z,13.88
2019-03-28T14:26:03.142Z,14.17
2019-03-28T14:29:16.606Z,14.17
2019-03-28T14:32:22.459Z,14.17
2019-03-28T14:35:33.718Z,14.04
2019-03-28T14:39:13.081Z,14.08
2019-03-28T14:42:19.914Z,14.44
2019-03-28T14:45:51.842Z,14.44
2019-03-28T14:48:57.038Z,14.63
2019-03-28T14:52:03.840Z,14.45
2019-03-28T14:55:11.352Z,14.45
2019-03-28T14:58:21.975Z,14.57
2019-03-28T15:01:33.725Z,14.72
2019-03-28T15:04:47.435Z,14.60
2019-03-28T15:07:52.815Z,14.66
2019-03-28T15:11:51.896Z,14.50
2019-03-28T15:22:36.422Z,14.08
2019-03-28T15:25:41.401Z,13.94
2019-03-28T15:28:49.488Z,14.04
2019-03-28T15:31:59.665Z,14.21
2019-03-28T15:35:24.371Z,14.38
2019-03-28T15:42:36.558Z,14.49
2019-03-28T15:57:25.498Z,13.71
2019-03-28T16:00:48.329Z,13.85
2019-03-28T16:03:56.173Z,13.85
2019-03-28T16:07:00.989Z,13.97
2019-03-28T16:10:06.607Z,13.66
2019-03-28T16:13:11.506Z,13.41
2019-03-28T16:16:16.419Z,13.07
2019-03-28T16:19:21.271Z,13.07
2019-03-28T16:22:26.104Z,13.15
2019-03-28T16:25:32.455Z,13.21
2019-03-28T16:28:37.347Z,13.27
2019-03-28T16:31:42.186Z,13.23
2019-03-28T16:34:47.022Z,13.08
2019-03-28T16:37:51.884Z,12.93
2019-03-28T16:40:58.822Z,12.93
2019-03-28T16:44:03.752Z,12.98
2019-03-28T16:47:08.607Z,12.93
2019-03-28T16:50:13.779Z,12.92
2019-03-28T16:53:18.596Z,12.97
2019-03-28T16:56:23.444Z,12.92
2019-03-28T16:59:28.313Z,13.08
2019-03-28T17:02:33.171Z,13.15
2019-03-28T17:05:39.313Z,13.10
2019-03-28T17:08:45.656Z,13.24
2019-03-28T17:11:50.561Z,13.29
2019-03-28T17:14:55.406Z,13.33
2019-03-28T17:18:00.233Z,13.41
2019-03-28T17:21:06.439Z,13.21
2019-03-28T17:24:11.315Z,13.02
2019-03-28T17:27:16.160Z,12.76
2019-03-28T17:30:21.146Z,12.68
2019-03-28T17:33:25.986Z,12.38
2019-03-28T17:36:30.834Z,12.29
2019-03-28T17:39:35.667Z,12.16
2019-03-28T17:42:40.561Z,12.06
2019-03-28T17:45:45.426Z,11.96
2019-03-28T17:48:50.258Z,11.87
2019-03-28T17:51:55.243Z,11.77
2019-03-28T17:55:01.369Z,11.67
2019-03-28T17:58:06.240Z,11.59
2019-03-28T18:01:11.139Z,11.47
2019-03-28T18:04:22.706Z,11.38
2019-03-28T18:07:22.742Z,11.29
2019-03-28T18:10:27.596Z,11.28
2019-03-28T18:13:32.479Z,11.22
2019-03-28T18:16:37.323Z,11.18
2019-03-28T18:19:42.189Z,11.08
2019-03-28T18:22:48.596Z,10.99
2019-03-28T18:25:53.990Z,10.89
2019-03-28T18:28:58.835Z,10.81
2019-03-28T18:32:03.721Z,10.68
2019-03-28T18:35:09.477Z,10.58
2019-03-28T18:38:17.318Z,10.46
2019-03-28T18:41:22.192Z,10.41
2019-03-28T18:44:29.801Z,10.32
2019-03-28T18:47:34.699Z,10.22
2019-03-28T18:50:41.142Z,10.13
2019-03-28T18:53:46.235Z,10.04
2019-03-28T18:56:51.089Z,9.97
2019-03-28T18:59:56.002Z,9.92
2019-03-28T19:03:00.875Z,9.81
2019-03-28T19:06:05.841Z,9.72
2019-03-28T19:09:10.701Z,9.64
2019-03-28T19:12:15.646Z,9.57
2019-03-28T19:15:20.544Z,9.51
2019-03-28T19:18:25.730Z,9.41
2019-03-28T19:21:30.779Z,9.36
2019-03-28T19:24:35.725Z,9.31
2019-03-28T19:27:40.798Z,9.27
2019-03-28T19:30:47.044Z,9.21
2019-03-28T19:33:51.968Z,9.15
2019-03-28T19:36:57.952Z,9.10
2019-03-28T19:40:06.943Z,9.03
2019-03-28T19:43:20.427Z,8.96
2019-03-28T19:46:17.990Z,8.96
2019-03-28T19:49:23.490Z,8.89
2019-03-28T19:52:28.550Z,8.84
2019-03-28T19:55:33.444Z,8.76
2019-03-28T19:58:38.425Z,8.73
2019-03-28T20:01:43.354Z,8.69
2019-03-28T20:04:48.330Z,8.65
2019-03-28T20:07:53.260Z,8.60
2019-03-28T20:10:58.176Z,8.58
2019-03-28T20:14:03.077Z,8.53
2019-03-28T20:17:07.954Z,8.48
2019-03-28T20:20:13.056Z,8.45
2019-03-28T20:23:17.921Z,8.40
2019-03-28T20:26:22.819Z,8.35
2019-03-28T20:29:27.714Z,8.32
2019-03-28T20:32:32.588Z,8.30
2019-03-28T20:35:40.623Z,8.28
2019-03-28T20:38:48.575Z,8.26
2019-03-28T20:41:52.162Z,8.25
2019-03-28T20:44:57.100Z,8.25
2019-03-28T20:48:02.049Z,8.24
2019-03-28T20:51:07.025Z,8.19
2019-03-28T20:54:11.895Z,8.15
2019-03-28T20:57:16.812Z,8.13
2019-03-28T21:00:41.752Z,8.11
2019-03-28T21:03:49.449Z,8.08
2019-03-28T21:06:53.326Z,8.10
2019-03-28T21:09:58.193Z,8.07
2019-03-28T21:13:04.859Z,8.05
2019-03-28T21:16:09.697Z,8.01
2019-03-28T21:19:14.674Z,7.98
2019-03-28T21:22:20.844Z,7.97
2019-03-28T21:25:25.770Z,7.93
2019-03-28T21:28:30.601Z,7.90
2019-03-28T21:31:48.867Z,7.89
2019-03-28T21:34:42.022Z,7.89
2019-03-28T21:37:46.860Z,7.88
2019-03-28T21:40:51.743Z,7.85
2019-03-28T21:43:56.915Z,7.82
2019-03-28T21:47:01.739Z,7.81
2019-03-28T21:50:06.669Z,7.78
2019-03-28T21:53:14.540Z,7.78
2019-03-28T21:56:19.383Z,7.74
2019-03-28T21:59:24.215Z,7.80
2019-03-28T22:02:29.680Z,7.76
2019-03-28T22:14:20.081Z,7.63
2019-03-28T22:18:17.909Z,7.50
2019-03-28T22:25:22.511Z,7.47
2019-03-28T22:28:33.083Z,7.44
2019-03-28T22:31:44.583Z,7.43
2019-03-28T22:42:31.310Z,7.38
2019-03-28T22:58:13.925Z,7.28
2019-03-28T23:01:41.219Z,7.27
2019-03-28T23:09:40.418Z,7.23
2019-03-28T23:21:17.979Z,7.08
2019-03-28T23:24:44.019Z,7.18
2019-03-28T23:31:50.829Z,7.18
2019-03-28T23:39:53.400Z,7.22
2019-03-28T23:43:06.762Z,7.04
2019-03-28T23:50:27.725Z,6.97
